• Join FlightAware (Why Join?)
  • Login
  • US Flag 
04:30AM EST


 

Airport Tracker/Info


-or-


 

Live Flight TrackerFlight Track Log ✈ N775NC ✈ 16-Aug-2013 ✈ KATL - KBHM

Flight Track Log - Related Links

Times and Time Zones

All times are in EDT time to prevent confusion due to time zone crossing. See the N775NC flight status page for this flight to view local times or setup timezone preferences in your user account.

Time Position Orientation Groundspeed Altitude Reporting Facility
EDT Latitude Longitude Course Direction KTS MPH feet Rate Location/Type
04:38PM 33.6561 -84.3708 280° West 378 435 2,500  Level Atlanta Center
04:39PM 33.6897 -84.2933 62° Northeast 306 352 4,900 2,280 Climbing Atlanta Center
04:40PM 33.7564 -84.2786 10° North 233 268 7,100 2,400 Climbing Atlanta Center
04:41PM 33.6824 -84.8745 277° West  Level FlightAware Approximate
04:41PM 33.8189 -84.3339 324° Northwest 287 330 9,700  Level Atlanta Center
04:42PM 33.6963 -84.9740 280° West  Level FlightAware Approximate
04:42PM 33.8125 -84.4189 265° West 298 343 12,000  Level Atlanta Center
04:43PM 33.7122 -85.0849 280° West  Level FlightAware Approximate
04:43PM 33.7808 -84.5236 250° West 292 336 14,300  Level Atlanta Center
04:44PM 33.7511 -84.6258 251° West 306 352 15,500 1,020 Climbing Atlanta Center
04:45PM 33.7214 -84.7406 253° West 337 388 16,400 900 Climbing Atlanta Center
04:46PM 33.6956 -84.8728 257° West 373 429 17,400 840 Climbing Atlanta Center
04:47PM 33.6819 -85.0025 263° West 404 465 18,100 300 Climbing Atlanta Center
04:48PM 33.6706 -85.1347 264° West 402 463 18,000 -60 Descending Atlanta Center
04:49PM 33.6589 -85.2642 264° West 402 463 18,000 -300 Level Atlanta Center
04:50PM 33.6514 -85.3789 266° West 395 455 17,400 -660 Descending Atlanta Center
04:51PM 33.6456 -85.5161 267° West 402 463 16,700 -900 Descending Atlanta Center
04:52PM 33.6375 -85.6506 266° West 414 476 15,700 -2,400 Descending Atlanta Center
04:53PM 33.6150 -85.7750 258° West 393 452 11,900 -2,340 Descending Atlanta Center
04:54PM 33.5758 -85.8889 248° West 377 434 11,100 -480 Descending Atlanta Center
04:55PM 33.5344 -85.9953 245° Southwest 372 428 11,000 -60 Descending Atlanta Center
04:56PM 33.4867 -86.1136 244° Southwest 377 434 11,000 -60 Level Atlanta Center
04:57PM 33.4344 -86.2417 244° Southwest 392 451 10,900 -600 Descending Atlanta Center
04:58PM 33.4133 -86.3583 258° West 338 389 9,900 -1,080 Descending Atlanta Center
04:59PM 33.4053 -86.4525 264° West 271 312 8,800 -1,380 Descending Atlanta Center
05:00PM 33.4056 -86.5422 270° West 305 351 7,200 -1,680 Descending Atlanta Center
05:01PM 33.3994 -86.6342 265° West 293 337 5,500 -1,560 Descending Atlanta Center
05:02PM 33.3933 -86.7283 266° West 270 311 4,100 -780 Descending Atlanta Center
05:03PM 33.3936 -86.8106 270° West 270 311 4,000 -60 Descending Atlanta Center
05:04PM 33.3897 -86.8875 267° West 253 291 4,000  Level Atlanta Center
05:05PM 33.4028 -86.9575 283° West 236 272 4,000 -660 Level Atlanta Center
05:06PM 33.4575 -86.9394 15° North 185 213 2,600 -720 Descending Atlanta Center
05:07PM 33.4856 -86.8931 54° Northeast 171 197 2,600 -420 Level Atlanta Center
05:08PM 33.5139 -86.8417 57° Northeast 183 211 1,900 -720 Descending Atlanta Center
05:09PM 33.5356 -86.8050 55° Northeast 133 153 1,200 -720 Descending Atlanta Center